Terminal Aerodrome Forecast
Issued by NWS

Home | Current Version | Previous Version | Text Only | Print | Product List | Glossary On
Versions: 1 2 3 4 5 6 7 8 9 10 11 12 13 14 15 16 17 18 19 20 21
000
FTUS41 KPHI 280500
TAFPNE
TAF
KPNE 280540Z 2806/2906 32011KT P6SM BKN250
     FM281300 32011G19KT P6SM SCT200
     FM282100 32010KT P6SM SKC
     FM290500 VRB03KT P6SM SKC=

USA.gov is the U.S. government's official web portal to all federal, state and local government web resources and services.